createdAt,value
2022-12-19T00:01:51.383Z,79.82
2022-12-19T00:04:54.357Z,86.32
2022-12-19T00:07:59.003Z,75.60
2022-12-19T00:11:11.310Z,79.20
2022-12-19T00:14:13.813Z,81.77
2022-12-19T00:17:16.943Z,75.40
2022-12-19T00:20:19.449Z,65.80
2022-12-19T00:23:23.286Z,72.73
2022-12-19T00:26:29.831Z,59.65
2022-12-19T00:29:32.978Z,71.43
2022-12-19T00:32:37.661Z,73.22
2022-12-19T00:35:40.645Z,78.80
2022-12-19T00:38:46.737Z,53.15
2022-12-19T00:41:49.536Z,65.25
2022-12-19T00:44:52.023Z,60.20
2022-12-19T00:47:55.622Z,63.38
2022-12-19T00:51:25.303Z,50.40
2022-12-19T00:54:28.421Z,72.00
2022-12-19T00:57:31.384Z,60.38
2022-12-19T01:00:34.286Z,47.72
2022-12-19T01:03:37.044Z,42.58
2022-12-19T01:06:40.773Z,57.17
2022-12-19T01:09:45.073Z,56.97
2022-12-19T01:12:48.655Z,46.22
2022-12-19T01:15:52.730Z,51.87
2022-12-19T01:18:55.908Z,42.83
2022-12-19T01:22:00.083Z,58.30
2022-12-19T01:25:03.507Z,56.43
2022-12-19T01:28:07.230Z,50.20
2022-12-19T01:31:10.796Z,55.20
2022-12-19T01:34:15.617Z,43.28
2022-12-19T01:37:20.589Z,56.65
2022-12-19T01:40:23.964Z,48.53
2022-12-19T01:43:30.736Z,69.75
2022-12-19T01:46:45.869Z,52.63
2022-12-19T01:49:48.830Z,48.22
2022-12-19T01:52:52.638Z,51.37
2022-12-19T01:55:56.151Z,59.10
2022-12-19T01:59:07.060Z,56.90
2022-12-19T02:02:17.743Z,61.33
2022-12-19T02:05:22.007Z,61.20
2022-12-19T02:08:28.155Z,53.83
2022-12-19T02:11:33.227Z,54.47
2022-12-19T02:14:36.041Z,64.28
2022-12-19T02:18:09.360Z,57.20
2022-12-19T02:21:21.034Z,61.37
2022-12-19T02:24:40.123Z,56.42
2022-12-19T02:27:45.987Z,55.37
2022-12-19T02:31:11.324Z,59.67
2022-12-19T02:34:44.587Z,51.85
2022-12-19T02:37:54.416Z,60.53
2022-12-19T02:41:06.902Z,56.88
2022-12-19T02:44:15.682Z,56.22
2022-12-19T02:47:21.469Z,57.30
2022-12-19T02:50:24.888Z,54.70
2022-12-19T02:53:27.770Z,56.97
2022-12-19T02:56:55.484Z,48.20
2022-12-19T03:00:10.671Z,54.50
2022-12-19T03:03:27.914Z,58.78
2022-12-19T03:07:02.462Z,67.95
2022-12-19T03:10:23.153Z,57.00
2022-12-19T03:13:38.105Z,60.75
2022-12-19T03:16:41.951Z,55.10
2022-12-19T03:19:45.973Z,65.47
2022-12-19T03:22:48.759Z,65.77
2022-12-19T03:25:56.367Z,61.10
2022-12-19T03:29:15.919Z,53.47
2022-12-19T03:32:20.431Z,62.00
2022-12-19T03:35:28.216Z,53.70
2022-12-19T03:38:32.345Z,57.60
2022-12-19T03:41:58.599Z,55.03
2022-12-19T03:45:05.544Z,58.87
2022-12-19T03:48:14.691Z,66.47
2022-12-19T03:51:52.671Z,60.42
2022-12-19T03:55:12.245Z,60.90
2022-12-19T03:58:20.899Z,54.97
2022-12-19T04:01:31.656Z,60.78
2022-12-19T04:04:46.112Z,52.73
2022-12-19T04:07:51.958Z,57.03
2022-12-19T04:10:59.551Z,60.05
2022-12-19T04:14:11.666Z,61.90
2022-12-19T04:17:34.197Z,58.90
2022-12-19T04:20:41.095Z,58.05
2022-12-19T04:23:50.774Z,59.20
2022-12-19T04:26:56.005Z,57.87
2022-12-19T04:30:01.198Z,70.60
2022-12-19T04:33:06.171Z,58.67
2022-12-19T04:36:11.727Z,64.57
2022-12-19T04:39:15.248Z,68.90
2022-12-19T04:42:19.277Z,74.15
2022-12-19T04:45:28.033Z,78.37
2022-12-19T04:48:31.628Z,71.07
2022-12-19T04:51:34.691Z,74.90
2022-12-19T04:54:37.617Z,66.20
2022-12-19T04:57:40.689Z,66.47
2022-12-19T05:00:43.867Z,66.50
2022-12-19T05:03:51.322Z,65.62
2022-12-19T05:06:59.397Z,63.67
2022-12-19T05:10:02.444Z,58.65
2022-12-19T05:13:07.104Z,65.68
2022-12-19T05:16:12.050Z,67.25
2022-12-19T05:19:15.836Z,64.35
2022-12-19T05:22:19.554Z,56.53
2022-12-19T05:25:26.407Z,63.13
2022-12-19T05:28:32.654Z,66.57
2022-12-19T05:31:38.732Z,63.83
2022-12-19T05:34:41.318Z,66.20
2022-12-19T05:37:44.988Z,77.57
2022-12-19T05:40:51.652Z,78.75
2022-12-19T05:43:56.448Z,59.22
2022-12-19T05:47:00.628Z,88.70
2022-12-19T05:50:05.924Z,79.53
2022-12-19T05:53:19.695Z,86.05
2022-12-19T05:56:27.885Z,93.37
2022-12-19T05:59:31.650Z,89.10
2022-12-19T06:02:35.337Z,95.35
2022-12-19T06:05:39.377Z,89.03
2022-12-19T06:08:42.560Z,72.40
2022-12-19T06:11:46.867Z,90.55
2022-12-19T06:14:54.920Z,72.15
2022-12-19T06:18:01.188Z,89.62
2022-12-19T06:21:08.240Z,86.80
2022-12-19T06:24:11.531Z,84.87
2022-12-19T06:27:18.167Z,103.10
2022-12-19T06:30:30.974Z,89.13
2022-12-19T06:33:34.744Z,78.43
2022-12-19T06:36:38.883Z,88.32
2022-12-19T06:39:41.853Z,106.00
2022-12-19T06:42:47.829Z,102.50
2022-12-19T06:45:54.941Z,80.35
2022-12-19T06:49:05.787Z,88.62
2022-12-19T06:52:12.447Z,75.40
2022-12-19T06:55:20.562Z,88.78
2022-12-19T06:58:24.870Z,93.28
2022-12-19T07:02:01.376Z,81.80
2022-12-19T07:05:08.551Z,68.22
2022-12-19T07:08:13.596Z,90.65
2022-12-19T07:11:18.543Z,76.20
2022-12-19T07:14:28.581Z,81.20
2022-12-19T07:17:31.535Z,83.87
2022-12-19T07:20:41.782Z,84.68
2022-12-19T07:23:48.020Z,80.83
2022-12-19T07:26:55.512Z,78.87
2022-12-19T07:30:04.580Z,70.93
2022-12-19T07:33:10.963Z,50.53
2022-12-19T07:36:14.915Z,76.15
2022-12-19T07:39:24.109Z,47.58
2022-12-19T07:42:32.614Z,53.05
2022-12-19T07:45:39.433Z,47.40
2022-12-19T07:48:44.751Z,38.75
2022-12-19T07:51:49.463Z,33.25
2022-12-19T07:54:56.763Z,43.40
2022-12-19T07:58:01.015Z,37.28
2022-12-19T08:01:04.587Z,40.50
2022-12-19T08:04:09.520Z,44.97
2022-12-19T08:07:17.562Z,49.17
2022-12-19T08:10:23.464Z,36.75
2022-12-19T08:13:37.266Z,39.00
2022-12-19T08:17:18.192Z,24.37
2022-12-19T08:20:08.281Z,29.43
2022-12-19T08:23:12.576Z,31.23
2022-12-19T08:26:21.997Z,34.70
2022-12-19T08:29:28.565Z,28.50
2022-12-19T08:32:32.553Z,34.60
2022-12-19T08:35:36.963Z,31.50
2022-12-19T08:38:40.154Z,32.70
2022-12-19T08:41:45.522Z,34.15
2022-12-19T08:44:49.961Z,33.20
2022-12-19T08:47:59.729Z,34.45
2022-12-19T08:51:07.527Z,36.70
2022-12-19T08:54:12.957Z,38.97
2022-12-19T08:57:16.105Z,33.43
2022-12-19T09:00:23.778Z,33.15
2022-12-19T09:03:36.766Z,26.70
2022-12-19T09:06:54.097Z,30.17
2022-12-19T09:10:00.180Z,31.33
2022-12-19T09:13:09.409Z,27.10
2022-12-19T09:16:14.687Z,29.33
2022-12-19T09:19:18.165Z,30.75
2022-12-19T09:22:29.592Z,23.23
2022-12-19T09:25:34.825Z,37.10
2022-12-19T09:28:40.576Z,33.15
2022-12-19T09:31:45.856Z,37.42
2022-12-19T09:34:48.853Z,29.67
2022-12-19T09:37:56.639Z,34.00
2022-12-19T09:41:34.201Z,33.28
2022-12-19T09:44:46.184Z,32.75
2022-12-19T09:47:51.055Z,23.87
2022-12-19T09:51:10.437Z,27.08
2022-12-19T09:54:24.711Z,31.20
2022-12-19T09:57:45.672Z,28.08
2022-12-19T10:01:00.066Z,31.60
2022-12-19T10:04:13.573Z,36.05
2022-12-19T10:07:53.002Z,25.65
2022-12-19T10:12:39.327Z,26.83
2022-12-19T10:14:44.892Z,29.53
2022-12-19T10:17:57.466Z,33.05
2022-12-19T10:21:18.567Z,58.70
2022-12-19T10:24:39.658Z,29.05
2022-12-19T10:28:04.170Z,24.93
2022-12-19T10:31:28.590Z,30.37
2022-12-19T10:34:41.212Z,28.77
2022-12-19T10:37:57.852Z,33.20
2022-12-19T10:41:13.522Z,35.42
2022-12-19T10:44:17.579Z,24.25
2022-12-19T10:47:20.477Z,31.58
2022-12-19T10:50:29.886Z,30.83
2022-12-19T10:53:37.981Z,27.97
2022-12-19T10:56:41.123Z,29.42
2022-12-19T11:00:00.601Z,27.62
2022-12-19T11:03:16.843Z,31.55
2022-12-19T11:06:44.684Z,27.63
2022-12-19T11:10:32.232Z,21.92
2022-12-19T11:19:21.788Z,21.77
2022-12-19T11:23:39.157Z,28.95
2022-12-19T11:29:54.223Z,27.67
2022-12-19T11:30:08.651Z,20.77
2022-12-19T11:30:38.372Z,23.27
2022-12-19T11:35:24.792Z,24.33
2022-12-19T11:38:39.504Z,32.75
2022-12-19T11:41:51.955Z,28.58
2022-12-19T11:45:17.984Z,32.20
2022-12-19T11:48:31.787Z,26.27
2022-12-19T11:51:54.786Z,28.67
2022-12-19T11:55:16.723Z,24.15
2022-12-19T11:58:22.676Z,30.48
2022-12-19T12:01:37.926Z,27.73
2022-12-19T12:04:51.707Z,32.50
2022-12-19T12:08:44.426Z,20.67
2022-12-19T12:18:48.400Z,30.50
2022-12-19T12:28:11.144Z,25.10
2022-12-19T12:31:06.542Z,30.80
2022-12-19T12:31:23.672Z,26.02
2022-12-19T12:31:51.537Z,26.33
2022-12-19T12:32:02.266Z,29.10
2022-12-19T12:35:46.223Z,35.40
2022-12-19T12:38:23.655Z,31.80
2022-12-19T12:42:05.182Z,32.13
2022-12-19T12:45:28.023Z,36.13
2022-12-19T12:49:01.495Z,38.38
2022-12-19T12:52:29.499Z,30.12
2022-12-19T12:55:43.416Z,31.40
2022-12-19T12:58:47.151Z,32.95
2022-12-19T13:01:56.502Z,36.70
2022-12-19T13:05:32.567Z,24.87
2022-12-19T13:08:47.470Z,35.53
2022-12-19T13:12:23.281Z,34.13
2022-12-19T13:15:34.384Z,48.58
2022-12-19T13:18:38.200Z,42.00
2022-12-19T13:22:04.985Z,35.47
2022-12-19T13:25:44.519Z,40.00
2022-12-19T13:28:49.012Z,26.08
2022-12-19T13:32:12.487Z,32.13
2022-12-19T13:39:27.651Z,30.25
2022-12-19T13:39:56.404Z,32.53
2022-12-19T13:42:43.619Z,30.92
2022-12-19T13:46:05.226Z,31.10
2022-12-19T13:49:08.133Z,30.48
2022-12-19T13:52:15.475Z,36.35
2022-12-19T13:55:27.977Z,34.78
2022-12-19T13:58:56.808Z,32.00
2022-12-19T14:02:18.901Z,37.92
2022-12-19T14:06:15.223Z,31.67
2022-12-19T14:11:23.364Z,27.57
2022-12-19T14:13:57.124Z,28.92
2022-12-19T14:16:44.058Z,41.75
2022-12-19T14:20:06.789Z,35.88
2022-12-19T14:23:38.158Z,31.20
2022-12-19T14:28:21.797Z,27.00
2022-12-19T14:30:36.889Z,31.42
2022-12-19T14:38:44.803Z,38.70
2022-12-19T14:41:08.820Z,35.90
2022-12-19T14:51:51.709Z,41.53
2022-12-19T14:53:34.063Z,38.50
2022-12-19T14:54:13.432Z,39.67
2022-12-19T14:55:58.973Z,26.55
2022-12-19T14:58:52.174Z,39.17
2022-12-19T15:01:53.882Z,30.48
2022-12-19T15:05:11.479Z,34.33
2022-12-19T15:09:17.589Z,37.53
2022-12-19T15:14:48.624Z,33.00
2022-12-19T15:15:59.208Z,38.03
2022-12-19T15:19:06.525Z,37.83
2022-12-19T15:22:11.134Z,31.83
2022-12-19T15:25:52.775Z,41.65
2022-12-19T15:28:45.467Z,40.47
2022-12-19T15:31:57.386Z,40.42
2022-12-19T15:35:12.860Z,50.35
2022-12-19T15:38:25.275Z,54.88
2022-12-19T15:41:30.892Z,48.33
2022-12-19T15:44:39.946Z,46.47
2022-12-19T15:47:44.767Z,41.83
2022-12-19T15:50:50.126Z,44.08
2022-12-19T15:54:22.552Z,39.23
2022-12-19T15:57:42.371Z,40.12
2022-12-19T16:00:57.454Z,40.08
2022-12-19T16:04:09.458Z,46.03
2022-12-19T16:07:27.724Z,45.10
2022-12-19T16:10:37.943Z,45.33
2022-12-19T16:13:44.399Z,43.83
2022-12-19T16:16:56.806Z,45.17
2022-12-19T16:20:03.658Z,45.55
2022-12-19T16:23:12.759Z,46.80
2022-12-19T16:26:31.512Z,39.65
2022-12-19T16:29:43.779Z,39.67
2022-12-19T16:32:49.667Z,33.03
2022-12-19T16:36:06.914Z,41.80
2022-12-19T16:39:17.341Z,41.63
2022-12-19T16:42:34.505Z,42.75
2022-12-19T16:45:39.534Z,41.58
2022-12-19T16:48:49.146Z,41.35
2022-12-19T16:51:59.544Z,40.67
2022-12-19T16:55:18.326Z,52.62
2022-12-19T16:58:28.479Z,38.75
2022-12-19T17:01:40.736Z,41.22
2022-12-19T17:04:52.108Z,48.38
2022-12-19T17:08:14.408Z,39.75
2022-12-19T17:11:29.746Z,31.33
2022-12-19T17:14:39.629Z,27.67
2022-12-19T17:17:51.601Z,28.33
2022-12-19T17:21:00.422Z,40.95
2022-12-19T17:24:15.032Z,31.10
2022-12-19T17:27:19.563Z,35.72
2022-12-19T17:30:30.550Z,40.70
2022-12-19T17:33:44.921Z,24.12
2022-12-19T17:37:02.430Z,35.63
2022-12-19T17:40:16.669Z,41.92
2022-12-19T17:43:30.318Z,33.22
2022-12-19T17:46:45.413Z,39.80
2022-12-19T17:49:52.088Z,37.20
2022-12-19T17:52:59.569Z,35.20
2022-12-19T17:56:17.161Z,31.23
2022-12-19T17:59:23.422Z,36.35
2022-12-19T18:02:31.556Z,38.35
2022-12-19T18:05:48.367Z,32.80
2022-12-19T18:08:59.453Z,35.43
2022-12-19T18:12:16.380Z,34.17
2022-12-19T18:15:35.388Z,38.80
2022-12-19T18:18:55.351Z,40.20
2022-12-19T18:22:08.412Z,43.38
2022-12-19T18:25:25.369Z,42.35
2022-12-19T18:28:32.480Z,39.35
2022-12-19T18:31:37.400Z,40.63
2022-12-19T18:34:46.115Z,34.80
2022-12-19T18:37:51.331Z,24.95
2022-12-19T18:41:04.343Z,35.63
2022-12-19T18:44:16.553Z,25.70
2022-12-19T18:47:29.786Z,42.78
2022-12-19T18:50:40.314Z,46.03
2022-12-19T18:53:48.160Z,38.87
2022-12-19T18:57:04.490Z,29.10
2022-12-19T19:00:26.307Z,40.45
2022-12-19T19:03:36.727Z,43.10
2022-12-19T19:06:46.760Z,34.47
2022-12-19T19:10:25.389Z,31.08
2022-12-19T19:13:31.665Z,38.92
2022-12-19T19:16:44.464Z,38.60
2022-12-19T19:19:57.690Z,33.78
2022-12-19T19:23:01.110Z,35.15
2022-12-19T19:26:04.089Z,32.38
2022-12-19T19:29:19.151Z,31.73
2022-12-19T19:32:29.508Z,37.53
2022-12-19T19:35:46.266Z,29.92
2022-12-19T19:39:03.465Z,42.77
2022-12-19T19:42:12.409Z,48.90
2022-12-19T19:45:25.529Z,41.15
2022-12-19T19:48:42.980Z,45.57
2022-12-19T19:51:54.338Z,42.17
2022-12-19T19:55:05.411Z,39.47
2022-12-19T19:58:09.368Z,41.28
2022-12-19T20:01:15.819Z,37.53
2022-12-19T20:04:25.934Z,44.78
2022-12-19T20:07:33.048Z,41.90
2022-12-19T20:10:43.425Z,28.90
2022-12-19T20:13:50.390Z,41.63
2022-12-19T20:16:55.358Z,39.15
2022-12-19T20:20:06.436Z,46.97
2022-12-19T20:23:15.846Z,45.12
2022-12-19T20:26:24.366Z,47.83
2022-12-19T20:29:40.377Z,47.20
2022-12-19T20:32:52.211Z,41.60
2022-12-19T20:36:07.491Z,43.58
2022-12-19T20:39:22.229Z,31.30
2022-12-19T20:42:43.283Z,41.00
2022-12-19T20:45:48.180Z,47.70
2022-12-19T20:48:59.922Z,40.95
2022-12-19T20:52:10.459Z,49.08
2022-12-19T20:55:16.325Z,50.15
2022-12-19T20:58:31.526Z,39.00
2022-12-19T21:01:34.612Z,31.58
2022-12-19T21:04:38.682Z,40.60
2022-12-19T21:07:49.950Z,47.65
2022-12-19T21:10:53.806Z,39.80
2022-12-19T21:13:57.930Z,49.45
2022-12-19T21:17:03.640Z,42.67
2022-12-19T21:20:08.568Z,40.20
2022-12-19T21:23:16.340Z,47.83
2022-12-19T21:26:21.069Z,46.47
2022-12-19T21:29:24.403Z,48.25
2022-12-19T21:32:28.019Z,43.75
2022-12-19T21:35:36.395Z,45.83
2022-12-19T21:38:42.880Z,49.58
2022-12-19T21:41:52.764Z,45.45
2022-12-19T21:45:02.352Z,44.60
2022-12-19T21:48:08.776Z,44.42
2022-12-19T21:51:13.362Z,38.78
2022-12-19T21:54:17.053Z,52.28
2022-12-19T21:57:25.528Z,39.03
2022-12-19T22:00:28.754Z,38.20
2022-12-19T22:03:42.474Z,58.95
2022-12-19T22:06:45.595Z,42.93
2022-12-19T22:09:50.154Z,46.88
2022-12-19T22:12:53.043Z,46.30
2022-12-19T22:16:04.601Z,47.65
2022-12-19T22:19:08.057Z,43.92
2022-12-19T22:22:18.928Z,50.25
2022-12-19T22:25:24.343Z,44.83
2022-12-19T22:28:30.480Z,39.87
2022-12-19T22:31:34.938Z,42.33
2022-12-19T22:34:38.036Z,48.03
2022-12-19T22:37:43.891Z,45.63
2022-12-19T22:40:48.131Z,43.13
2022-12-19T22:43:54.374Z,49.80
2022-12-19T22:46:58.266Z,50.20
2022-12-19T22:50:01.370Z,53.15
2022-12-19T22:53:11.034Z,42.55
2022-12-19T22:56:19.791Z,45.08
2022-12-19T22:59:22.799Z,32.47
2022-12-19T23:02:27.229Z,54.55
2022-12-19T23:05:37.263Z,47.08
2022-12-19T23:08:40.469Z,46.40
2022-12-19T23:11:45.395Z,45.63
2022-12-19T23:14:48.753Z,53.45
2022-12-19T23:17:52.973Z,52.67
2022-12-19T23:21:25.683Z,51.03
2022-12-19T23:24:28.978Z,37.10
2022-12-19T23:27:37.913Z,44.72
2022-12-19T23:30:40.990Z,40.50
2022-12-19T23:33:44.195Z,44.50
2022-12-19T23:40:10.751Z,50.83
2022-12-19T23:43:14.540Z,42.03
2022-12-19T23:46:21.437Z,39.00
2022-12-19T23:49:25.291Z,47.28
2022-12-19T23:52:27.780Z,52.00
2022-12-19T23:55:31.392Z,41.80
2022-12-19T23:58:34.364Z,43.20
